Hundvaag 1 weather for Nov 1999
Month no. 149
Obs.
Da.
Temp. Dew Point Precip. Wind
Speed
Wind gusts Cloud cover Press. Humidity Wind dir. Sunny OPT
01.11.1999 10,9   3,0     0          
02.11.1999 9,0   24,0     5       1  
03.11.1999 8,8   8,0     2          
04.11.1999 11,0   4,0     0          
05.11.1999 11,1   0,0     0       1  
06.11.1999 9,7   0,0     0          
07.11.1999 8,5   0,0     8       1  
08.11.1999 9,3   1,0     0          
09.11.1999 8,4   5,0     1       1  
10.11.1999 4,0   0,0     10       1  
11.11.1999 7,5   0,0     3          
12.11.1999 8,1   0,0     0          
13.11.1999 9,9   0,0     0          
14.11.1999 5,0   0,0     7       1  
15.11.1999 5,7   0,0     0          
16.11.1999 3,3   11,0     2          
17.11.1999 3,1   8,0     0          
18.11.1999 2,8   2,0     10       1  
19.11.1999 3,8   0,0     10          
20.11.1999 -1,4   0,0     10          
21.11.1999 4,2   0,0     1          
22.11.1999 5,7   0,0     0          
23.11.1999 4,0   13,0     9          
24.11.1999 9,2   0,0     0          
25.11.1999 7,6   28,0     0          
26.11.1999 9,7   13,0     0          
27.11.1999 6,9   3,0     5          
28.11.1999 9,2   7,0     0          
29.11.1999 5,6   39,0     2          
30.11.1999 4,9   1,0     0          
                       
Avrg/Sum 6,9   170,0     2,8       7